Time;durP1;ratioP1;P1;durP2;ratioP2;P2;SDS_P1;SDS_P2;PMS_P1;PMS_P2;Temp;Humidity;BMP_temperature;BMP_pressure;BME280_temperature;BME280_humidity;BME280_pressure;Samples;Min_cycle;Max_cycle;Signal;HPM_P1;HPM_P2
2021/12/05 00:22:03;;;;;;;24.13;7.93;;;2.00;99.90;;;0.15;100.00;99328.16;4826914;29;20052;-81
2021/12/05 00:24:07;;;;;;;28.77;9.60;;;2.00;99.90;;;0.19;100.00;99329.78;4814794;29;20040;-81
2021/12/05 00:26:35;;;;;;;51.35;15.05;;;2.00;99.90;;;0.12;100.00;99325.63;4850349;28;20038;-81
2021/12/05 00:29:46;;;;;;;38.38;10.70;;;2.00;99.90;;;0.17;100.00;99320.31;4873697;28;20058;-81
2021/12/05 00:36:34;;;;;;;29.48;11.25;;;1.90;99.90;;;0.12;100.00;99322.19;4828843;28;20074;-81
2021/12/05 00:41:02;;;;;;;30.60;11.65;;;1.90;99.90;;;0.07;100.00;99322.31;4886773;28;20047;-83
2021/12/05 01:03:14;;;;;;;25.40;10.75;;;1.80;99.90;;;0.10;100.00;99340.34;4856563;28;20105;-82
2021/12/05 01:05:26;;;;;;;26.05;9.38;;;1.80;99.90;;;0.02;100.00;99337.09;4924336;28;20028;-81
2021/12/05 01:13:31;;;;;;;27.20;10.68;;;1.80;99.90;;;0.01;100.00;99344.94;4920334;28;20535;-82
2021/12/05 01:16:02;;;;;;;23.65;9.13;;;;;;;0.00;100.00;99359.59;4864550;28;20136;-81
2021/12/05 01:18:28;;;;;;;20.25;9.50;;;1.80;99.90;;;-0.04;100.00;99356.25;4859019;28;20089;-82
2021/12/05 01:20:59;;;;;;;25.85;9.57;;;1.80;99.90;;;0.01;100.00;99363.88;4874841;28;20037;-80
2021/12/05 01:29:33;;;;;;;25.10;10.77;;;1.80;99.90;;;-0.04;100.00;99364.00;4829753;28;20032;-80
2021/12/05 01:32:28;;;;;;;24.50;10.05;;;1.80;99.90;;;-0.02;100.00;99367.41;4884147;28;20073;-82
2021/12/05 01:35:03;;;;;;;29.15;10.82;;;1.80;99.90;;;-0.04;100.00;99369.19;4869426;28;20494;-82
2021/12/05 01:37:41;;;;;;;25.75;10.05;;;1.80;99.90;;;-0.04;100.00;99369.19;4876034;28;20054;-80
2021/12/05 01:59:31;;;;;;;20.08;7.65;;;1.80;99.90;;;-0.02;100.00;99357.06;4887593;28;20089;-82
2021/12/05 02:40:33;;;;;;;21.33;8.10;;;1.80;99.90;;;0.03;100.00;99380.22;4872517;28;20086;-81
2021/12/05 02:43:13;;;;;;;20.40;8.23;;;1.80;99.90;;;-0.10;100.00;99378.84;4871823;28;20051;-82
2021/12/05 02:45:45;;;;;;;17.63;6.72;;;1.70;99.90;;;-0.13;100.00;99378.88;4852897;28;20059;-81
2021/12/05 02:48:15;;;;;;;19.70;8.30;;;1.70;99.90;;;-0.13;100.00;99376.31;4860123;28;20082;-81
2021/12/05 02:50:44;;;;;;;20.23;8.10;;;1.70;99.90;;;-0.10;100.00;99391.78;4859645;28;20562;-82
2021/12/05 02:53:21;;;;;;;23.48;8.63;;;1.70;99.90;;;-0.04;100.00;99391.63;4865857;28;20205;-81
2021/12/05 02:55:50;;;;;;;23.10;8.30;;;;;;;0.06;100.00;99407.75;4852451;28;20114;-82
2021/12/05 02:58:34;;;;;;;18.55;8.07;;;1.80;99.90;;;-0.05;100.00;99400.25;4873174;28;20097;-80
2021/12/05 03:01:20;;;;;;;21.75;9.07;;;1.80;99.90;;;-0.08;100.00;99408.09;4860046;28;20121;-81
2021/12/05 03:03:48;;;;;;;;;;;1.80;99.90;;;-0.17;100.00;99400.53;4894214;28;20105;-82
2021/12/05 03:06:22;;;;;;;20.10;8.13;;;1.70;99.90;;;-0.24;100.00;99408.47;4861662;28;19915;-81
2021/12/05 03:08:53;;;;;;;17.88;7.68;;;;;;;-0.25;100.00;99403.34;4888181;28;20031;-82
2021/12/05 03:11:21;;;;;;;26.58;9.25;;;1.60;99.90;;;-0.29;100.00;99415.47;4914742;28;20054;-80
2021/12/05 03:13:48;;;;;;;19.50;8.68;;;1.60;99.90;;;-0.32;100.00;99419.91;4890249;28;20031;-81
2021/12/05 03:16:24;;;;;;;25.00;9.55;;;1.50;99.90;;;-0.26;100.00;99430.94;4876732;28;20058;-81
2021/12/05 03:18:51;;;;;;;22.13;9.07;;;1.60;99.90;;;-0.33;100.00;99429.38;4896420;28;20511;-81
2021/12/05 03:21:18;;;;;;;24.65;8.98;;;1.60;99.90;;;-0.33;100.00;99431.94;4861970;28;20039;-81
2021/12/05 03:23:54;;;;;;;30.48;9.77;;;1.60;99.90;;;-0.32;100.00;99436.25;4870102;28;20477;-82
2021/12/05 03:26:31;;;;;;;;;;;1.60;99.90;;;-0.13;100.00;99446.16;4918889;28;20036;-80
2021/12/05 03:28:58;;;;;;;;;;;1.60;99.90;;;-0.27;100.00;99437.00;4921647;28;20331;-81
2021/12/05 03:31:31;;;;;;;31.33;9.65;;;1.50;99.90;;;-0.29;100.00;99440.50;4894802;28;19913;-81
2021/12/05 03:33:59;;;;;;;24.58;8.98;;;1.60;99.90;;;-0.34;100.00;99434.59;4868035;28;20019;-81
2021/12/05 03:36:26;;;;;;;26.20;10.05;;;1.50;99.90;;;-0.29;100.00;99441.34;4902932;28;20024;-81
2021/12/05 03:39:02;;;;;;;26.80;9.00;;;1.50;99.90;;;-0.30;100.00;99439.66;4892679;28;20520;-80
2021/12/05 03:41:29;;;;;;;27.23;9.50;;;1.50;99.90;;;-0.36;100.00;99444.13;4896140;28;20495;-82
2021/12/05 03:43:57;;;;;;;25.58;9.23;;;1.50;99.90;;;-0.37;100.00;99437.22;4864134;28;20027;-81
2021/12/05 03:46:27;;;;;;;28.00;9.40;;;1.50;99.90;;;-0.38;100.00;99444.16;4839297;28;20106;-82
2021/12/05 03:49:11;;;;;;;28.55;9.63;;;1.50;99.90;;;-0.34;100.00;99444.94;4847677;28;20047;-81
2021/12/05 03:51:46;;;;;;;19.40;8.25;;;1.40;99.90;;;-0.39;100.00;99444.19;4831251;28;20030;-82
2021/12/05 03:54:13;;;;;;;29.35;10.70;;;;;;;-0.47;100.00;99441.78;4879347;28;20023;-82
2021/12/05 03:56:43;;;;;;;25.38;8.80;;;1.40;99.90;;;-0.54;100.00;99445.34;4862009;28;20391;-82
2021/12/05 03:59:15;;;;;;;28.77;9.75;;;1.30;99.90;;;-0.64;100.00;99453.31;4881966;28;20079;-80
2021/12/05 04:01:42;;;;;;;25.98;8.45;;;1.20;99.90;;;-0.59;100.00;99465.31;4870137;28;20032;-81
2021/12/05 04:04:10;;;;;;;23.67;8.52;;;1.20;99.90;;;-0.71;100.00;99464.69;4878989;28;20042;-82
2021/12/05 04:06:47;;;;;;;21.15;8.55;;;1.20;99.90;;;-0.73;100.00;99478.53;4905978;23;20041;-81
2021/12/05 04:09:26;;;;;;;24.85;8.30;;;1.20;99.90;;;-0.75;100.00;99486.31;4895495;28;20083;-81
2021/12/05 04:12:02;;;;;;;17.60;7.78;;;1.20;99.90;;;-0.78;100.00;99488.94;4904617;28;20594;-80
2021/12/05 04:14:35;;;;;;;24.63;8.85;;;1.10;99.90;;;-0.75;100.00;99495.81;4927008;28;20053;-81
2021/12/05 04:17:07;;;;;;;25.83;8.60;;;1.10;99.90;;;-0.81;100.00;99504.50;4875514;28;20462;-80
2021/12/05 04:19:35;;;;;;;20.70;7.93;;;1.10;99.90;;;-0.85;100.00;99505.47;4859682;28;20135;-82
2021/12/05 04:22:05;;;;;;;24.48;8.00;;;1.10;99.90;;;-0.86;100.00;99512.38;4897076;28;24929;-81
2021/12/05 04:24:35;;;;;;;26.83;9.65;;;1.00;99.90;;;-0.85;100.00;99520.97;4895263;28;20041;-81
2021/12/05 04:27:02;;;;;;;22.95;8.40;;;1.10;99.90;;;-0.76;100.00;99525.94;4899178;28;20090;-82
2021/12/05 04:29:29;;;;;;;24.50;8.38;;;1.10;99.90;;;-0.81;100.00;99525.19;4880970;28;20054;-79
2021/12/05 04:31:55;;;;;;;27.23;9.55;;;1.10;99.90;;;-0.89;100.00;99537.41;4861642;28;20479;-80
2021/12/05 04:34:21;;;;;;;24.25;8.90;;;1.00;99.90;;;-0.85;100.00;99544.22;4851611;28;20050;-81
2021/12/05 04:36:56;;;;;;;24.42;8.35;;;1.00;99.90;;;-0.92;100.00;99538.31;4939191;28;20034;-81
2021/12/05 04:39:35;;;;;;;27.27;9.75;;;1.00;99.90;;;-0.91;100.00;99540.00;4879567;28;20056;-80
2021/12/05 04:42:01;;;;;;;28.95;9.90;;;1.00;99.90;;;-0.91;100.00;99549.50;4896589;28;20034;-81
2021/12/05 04:44:28;;;;;;;28.20;8.65;;;1.00;99.90;;;-0.84;100.00;99557.13;4869275;28;20027;-81
2021/12/05 04:47:00;;;;;;;27.52;10.00;;;1.00;99.90;;;-0.86;100.00;99560.63;4895353;23;20042;-81
2021/12/05 04:49:27;;;;;;;38.13;11.13;;;1.00;99.90;;;-0.88;100.00;99564.97;4854957;28;20047;-81
2021/12/05 04:51:54;;;;;;;26.13;10.48;;;1.00;99.90;;;-0.89;100.00;99568.41;4879424;28;20499;-80
2021/12/05 04:54:29;;;;;;;22.50;8.57;;;1.00;99.90;;;-0.84;100.00;99571.78;4876525;28;20037;-81
2021/12/05 04:56:55;;;;;;;32.85;11.05;;;1.00;99.90;;;-0.87;100.00;99580.44;4881083;28;20035;-81
2021/12/05 04:59:24;;;;;;;33.03;9.30;;;1.00;99.90;;;-0.92;100.00;99574.50;4888184;28;20129;-81
2021/12/05 05:01:57;;;;;;;31.58;10.80;;;1.00;99.90;;;-0.86;100.00;99576.13;4888437;28;20038;-81
2021/12/05 05:04:29;;;;;;;28.23;9.63;;;1.00;99.90;;;-0.96;100.00;99578.00;4919156;28;20594;-80
2021/12/05 05:07:04;;;;;;;36.47;11.75;;;0.90;99.90;;;-1.03;100.00;99581.59;4875777;28;20138;-82
2021/12/05 05:09:30;;;;;;;28.73;10.45;;;0.90;99.90;;;-0.92;100.00;99574.50;4899384;28;20030;-81
2021/12/05 05:11:57;;;;;;;31.73;10.30;;;0.90;99.90;;;-0.94;100.00;99584.00;4894695;28;20046;-81
2021/12/05 05:14:32;;;;;;;27.45;9.80;;;0.90;99.90;;;-0.98;100.00;99584.94;4912441;28;20050;-81
2021/12/05 05:16:58;;;;;;;35.17;12.35;;;0.90;99.90;;;-1.01;100.00;99584.16;4887785;28;20121;-80
2021/12/05 05:19:27;;;;;;;32.53;10.65;;;0.90;99.90;;;-1.06;100.00;99582.50;4890452;28;20085;-80
2021/12/05 05:22:05;;;;;;;35.13;11.48;;;0.90;99.90;;;-1.03;100.00;99586.75;4852565;28;20038;-82
2021/12/05 05:49:50;;;;;;;38.90;13.48;;;0.90;99.90;;;-0.87;100.00;99677.78;4899127;28;20429;-81
2021/12/05 05:52:21;;;;;;;36.97;11.55;;;1.00;99.90;;;-0.95;100.00;99671.88;4895412;28;20108;-81
2021/12/05 05:54:49;;;;;;;34.47;11.27;;;0.90;99.90;;;-0.95;100.00;99677.06;4877408;28;20525;-81
2021/12/05 05:57:27;;;;;;;38.53;12.73;;;1.00;99.90;;;-0.88;100.00;99679.53;4876191;28;20045;-82
2021/12/05 06:00:33;;;;;;;36.17;13.00;;;0.90;99.90;;;-0.97;100.00;99679.69;4889499;28;20074;-81
2021/12/05 06:05:38;;;;;;;37.85;12.10;;;0.90;99.90;;;-1.02;100.00;99685.78;4918264;28;20042;-80
2021/12/05 06:08:05;;;;;;;36.80;11.63;;;0.90;99.90;;;-1.02;100.00;99691.81;4870020;28;20142;-81
2021/12/05 06:10:33;;;;;;;43.97;12.88;;;0.90;99.90;;;-1.01;100.00;99697.84;4888303;28;20027;-80
2021/12/05 06:12:59;;;;;;;42.13;12.45;;;0.80;99.90;;;-1.08;100.00;99704.81;4884187;28;20022;-81
2021/12/05 06:15:34;;;;;;;41.13;11.95;;;0.90;99.90;;;-1.02;100.00;99709.06;4878526;28;20041;-80
2021/12/05 06:18:00;;;;;;;32.20;10.45;;;0.90;99.90;;;-0.98;100.00;99708.97;4866879;28;20109;-81
2021/12/05 06:20:31;;;;;;;42.97;13.32;;;0.90;99.90;;;-1.02;100.00;99721.97;4909282;28;20041;-81
2021/12/05 06:23:00;;;;;;;37.92;12.10;;;0.90;99.90;;;-1.11;100.00;99718.66;4888686;28;20023;-81
2021/12/05 06:25:31;;;;;;;40.78;12.85;;;0.90;99.90;;;-1.13;100.00;99710.06;4906507;28;20042;-80
2021/12/05 06:28:07;;;;;;;42.58;11.75;;;0.80;99.90;;;-1.11;100.00;99731.56;4915818;28;20035;-82
2021/12/05 06:31:02;;;;;;;45.55;13.55;;;0.80;99.90;;;-1.13;100.00;99735.91;4911143;28;20038;-82
2021/12/05 06:47:24;;;;;;;38.67;10.75;;;0.80;99.90;;;-1.13;100.00;99763.47;4873642;28;20042;-81
2021/12/05 06:49:58;;;;;;;28.50;10.38;;;0.80;99.90;;;-1.11;100.00;99762.56;4896473;28;20014;-79
2021/12/05 06:52:24;;;;;;;38.08;10.65;;;0.80;99.90;;;-1.14;100.00;99759.19;4900040;28;20102;-81
2021/12/05 06:54:51;;;;;;;35.97;10.70;;;0.80;99.90;;;-1.11;100.00;99770.31;4891561;28;20034;-81
2021/12/05 06:57:25;;;;;;;34.00;10.13;;;0.80;99.90;;;-0.99;100.00;99782.22;4935620;28;20774;-79
2021/12/05 06:59:52;;;;;;;32.45;10.27;;;0.80;99.90;;;-1.09;100.00;99768.56;4896643;28;20723;-79
2021/12/05 07:02:20;;;;;;;36.47;11.57;;;0.80;99.90;;;-1.07;100.00;99777.16;4901821;28;20037;-81
2021/12/05 07:07:24;;;;;;;33.67;10.23;;;0.80;99.90;;;-1.11;100.00;99770.31;4951241;28;20048;-80
2021/12/05 07:10:02;;;;;;;29.63;11.15;;;0.80;99.90;;;-1.07;100.00;99773.72;4875844;28;20042;-80
2021/12/05 07:13:00;;;;;;;34.50;10.73;;;0.80;99.90;;;-1.09;100.00;99768.56;4914656;28;20038;-79
2021/12/05 07:15:33;;;;;;;41.10;10.60;;;0.80;99.90;;;-1.07;100.00;99776.31;4898782;28;20318;-81
2021/12/05 07:21:00;;;;;;;33.58;11.27;;;0.90;99.90;;;-1.06;100.00;99775.41;4896218;28;20141;-79
2021/12/05 07:26:06;;;;;;;33.22;10.15;;;0.90;99.90;;;-1.04;100.00;99777.13;4932274;28;20062;-80
2021/12/05 07:42:24;;;;;;;30.45;10.95;;;0.90;99.90;;;-1.00;100.00;99780.50;4916260;28;20033;-80
2021/12/05 07:44:57;;;;;;;27.85;9.88;;;0.90;99.90;;;-0.99;100.00;99777.06;4903026;28;20038;-80
2021/12/05 07:47:27;;;;;;;27.75;9.80;;;0.90;99.90;;;-0.90;100.00;99786.41;4905741;28;20511;-80
2021/12/05 07:49:57;;;;;;;23.88;8.90;;;1.00;99.90;;;-0.95;100.00;99786.47;4899223;28;20114;-79
2021/12/05 07:52:26;;;;;;;34.53;9.73;;;0.90;99.90;;;-1.00;100.00;99784.81;4905138;28;20122;-80
2021/12/05 07:55:04;;;;;;;25.30;9.25;;;0.90;99.90;;;-1.00;100.00;99777.06;4910070;28;20464;-80
2021/12/05 07:57:40;;;;;;;37.03;10.70;;;0.90;99.90;;;-0.97;100.00;99787.34;4891903;28;20034;-80
2021/12/05 08:16:28;;;;;;;28.20;9.00;;;1.00;99.90;;;-1.00;100.00;99779.66;4931402;28;20080;-80
2021/12/05 08:19:02;;;;;;;26.63;8.75;;;1.00;99.90;;;-0.98;100.00;99781.31;4888486;28;20066;-79
2021/12/05 08:21:28;;;;;;;32.22;10.20;;;1.00;99.90;;;-0.95;100.00;99788.19;4941944;28;20062;-80
2021/12/05 08:23:54;;;;;;;28.25;9.45;;;1.00;99.90;;;-0.95;100.00;99783.00;4876530;28;20098;-80
2021/12/05 08:26:31;;;;;;;29.17;9.60;;;1.00;99.90;;;-0.93;100.00;99789.00;4910917;28;20030;-80
2021/12/05 08:29:16;;;;;;;29.15;10.30;;;1.00;99.90;;;-0.94;100.00;99793.34;4923357;28;20118;-80
2021/12/05 08:32:32;;;;;;;36.80;8.90;;;1.00;99.90;;;-0.94;100.00;99789.91;4925972;28;20076;-79
2021/12/05 08:37:35;;;;;;;29.35;9.65;;;1.00;99.90;;;-0.94;100.00;99787.31;4889489;28;20021;-82
2021/12/05 08:43:40;;;;;;;31.40;10.05;;;1.10;99.90;;;-0.86;100.00;99816.50;4895673;28;20186;-80
2021/12/05 09:27:51;;;;;;;41.33;12.10;;;1.40;99.90;;;-0.53;100.00;99891.84;4929283;28;20112;-81
2021/12/05 10:14:51;;;;;;;49.47;14.88;;;1.80;99.90;;;0.06;100.00;99814.97;4917934;28;20112;-80
2021/12/05 10:37:16;;;;;;;47.72;16.02;;;2.10;99.90;;;0.19;100.00;99787.13;4909981;28;20038;-81
2021/12/05 10:39:48;;;;;;;46.03;15.43;;;2.10;99.90;;;0.22;100.00;99784.50;4856994;28;20037;-81
2021/12/05 10:42:39;;;;;;;48.72;14.68;;;2.20;99.90;;;0.30;100.00;99792.97;4858703;28;20165;-82
2021/12/05 10:45:23;;;;;;;47.83;14.88;;;2.20;99.90;;;0.26;100.00;99793.03;4857478;28;20035;-82
2021/12/05 10:47:53;;;;;;;39.60;14.10;;;2.20;99.90;;;0.36;100.00;99797.16;4919435;28;20038;-81
2021/12/05 10:50:44;;;;;;;45.60;14.30;;;2.20;99.90;;;0.29;100.00;99791.25;4899746;28;20049;-81
2021/12/05 10:54:02;;;;;;;45.72;15.50;;;2.20;99.90;;;0.31;100.00;99788.63;4878469;28;20568;-82
2021/12/05 10:56:49;;;;;;;33.17;13.05;;;2.20;99.90;;;0.31;100.00;99784.31;4892521;28;20037;-80
2021/12/05 10:59:32;;;;;;;34.10;13.85;;;2.30;99.90;;;0.39;100.00;99790.19;4917740;28;20546;-82
2021/12/05 11:02:13;;;;;;;47.15;15.32;;;2.30;99.90;;;0.54;100.00;99807.16;4895640;28;20041;-81
2021/12/05 11:04:49;;;;;;;33.90;13.40;;;2.30;99.90;;;0.40;100.00;99794.47;4900495;28;20053;-82
2021/12/05 11:07:18;;;;;;;;;;;2.30;99.90;;;0.51;100.00;99809.78;4899165;28;20512;-82
2021/12/05 11:09:59;;;;;;;36.30;13.30;;;2.40;99.90;;;0.46;100.00;99816.81;4902882;28;19915;-82
2021/12/05 11:12:33;;;;;;;37.65;13.95;;;2.40;99.90;;;0.68;100.00;99827.59;4906108;28;20038;-82
2021/12/05 11:15:25;;;;;;;37.42;14.13;;;2.40;99.90;;;0.51;100.00;99804.63;4859673;28;20058;-82
2021/12/05 11:18:01;;;;;;;36.88;14.13;;;2.40;99.90;;;0.54;100.00;99812.34;4881752;28;20023;-82
2021/12/05 11:20:41;;;;;;;36.90;13.75;;;2.40;99.90;;;0.58;100.00;99811.41;4888973;28;20097;-82
2021/12/05 11:23:18;;;;;;;41.47;14.45;;;2.30;99.90;;;0.50;100.00;99795.16;4883469;28;20154;-82
2021/12/05 11:25:44;;;;;;;38.10;14.02;;;2.30;99.90;;;0.50;100.00;99802.94;4880470;28;20126;-82
2021/12/05 11:28:17;;;;;;;37.33;11.93;;;2.40;99.90;;;0.53;100.00;99810.63;4894757;28;20038;-83
2021/12/05 11:30:46;;;;;;;41.03;14.02;;;2.40;99.90;;;0.46;100.00;99793.50;4883801;28;20146;-83
2021/12/05 11:33:25;;;;;;;40.38;14.00;;;2.40;99.90;;;0.50;100.00;99794.31;4887562;28;20072;-84
2021/12/05 11:35:53;;;;;;;42.83;13.50;;;;;;;0.54;100.00;99806.28;4845438;28;20496;-82
2021/12/05 11:38:34;;;;;;;44.13;13.90;;;2.40;99.90;;;0.51;100.00;99802.03;4914373;28;20471;-81
2021/12/05 11:41:10;;;;;;;37.63;13.00;;;2.30;99.90;;;0.51;100.00;99807.22;4913063;28;20387;-80
2021/12/05 11:43:51;;;;;;;34.65;13.77;;;2.40;99.90;;;0.46;100.00;99790.91;4887844;28;20458;-83
2021/12/05 11:46:36;;;;;;;42.50;13.20;;;2.40;99.90;;;0.47;100.00;99804.72;4878682;28;20050;-83
2021/12/05 11:49:10;;;;;;;37.85;13.48;;;2.40;99.90;;;0.41;100.00;99797.91;4898560;28;20125;-82
2021/12/05 11:51:47;;;;;;;39.08;14.20;;;2.30;99.90;;;0.39;100.00;99800.56;4911274;28;20140;-83
2021/12/05 11:54:22;;;;;;;34.97;13.40;;;2.30;99.90;;;0.35;100.00;99798.06;4897978;28;20047;-83
2021/12/05 11:57:15;;;;;;;39.63;14.43;;;2.30;99.90;;;0.36;100.00;99798.00;4885913;28;20031;-83
2021/12/05 11:59:55;;;;;;;36.83;13.80;;;2.30;99.90;;;0.43;100.00;99803.91;4877626;28;21926;-81
2021/12/05 12:02:40;;;;;;;47.47;14.95;;;2.30;99.90;;;0.37;100.00;99811.84;4917004;28;20038;-83
2021/12/05 12:05:23;;;;;;;41.00;14.27;;;2.30;99.90;;;0.50;100.00;99835.75;4885535;28;20023;-83
2021/12/05 12:08:00;;;;;;;367.92;32.42;;;2.30;99.90;;;0.46;100.00;99834.09;4880509;28;20034;-83
2021/12/05 12:10:47;;;;;;;35.22;13.93;;;;;;;0.39;100.00;99821.28;4858360;28;21013;-82
2021/12/05 12:13:23;;;;;;;40.30;14.35;;;2.20;99.90;;;0.34;100.00;99822.22;4882923;28;20024;-83
2021/12/05 12:16:02;;;;;;;38.22;13.73;;;2.20;99.90;;;0.44;100.00;99841.06;4870945;28;20054;-81
2021/12/05 12:18:47;;;;;;;46.60;14.00;;;2.20;99.90;;;0.41;100.00;99839.34;4886913;28;20074;-82
2021/12/05 12:21:25;;;;;;;43.25;14.52;;;2.20;99.90;;;0.36;100.00;99849.78;4905053;28;20121;-82
2021/12/05 12:23:57;;;;;;;40.55;15.85;;;2.20;99.90;;;0.31;100.00;99848.19;4905225;28;20046;-83
2021/12/05 12:26:29;;;;;;;44.25;17.08;;;2.20;99.90;;;0.35;100.00;99855.03;4911040;28;20038;-82
2021/12/05 12:28:58;;;;;;;40.25;14.02;;;2.20;99.90;;;0.29;100.00;99853.41;4912654;28;20076;-82
2021/12/05 12:31:36;;;;;;;42.65;15.50;;;2.10;99.90;;;0.28;100.00;99861.19;4894120;28;20554;-83
2021/12/05 12:34:18;;;;;;;40.75;18.98;;;2.10;99.90;;;0.23;100.00;99869.03;4900434;28;20398;-84
2021/12/05 12:36:53;;;;;;;96.80;21.88;;;2.10;99.90;;;0.29;100.00;99870.69;4910423;28;20115;-82
2021/12/05 12:39:20;;;;;;;34.97;13.82;;;2.10;99.90;;;0.26;100.00;99870.72;4853522;28;20481;-82
2021/12/05 12:42:20;;;;;;;43.28;14.13;;;2.00;99.90;;;0.22;100.00;99875.13;4934341;28;20038;-82
2021/12/05 12:45:15;;;;;;;42.42;13.98;;;2.00;99.90;;;0.18;100.00;99869.13;4898273;28;20041;-82
2021/12/05 12:47:54;;;;;;;39.20;14.43;;;2.10;99.90;;;0.19;100.00;99876.03;4878678;28;20037;-82
2021/12/05 12:50:36;;;;;;;39.33;14.43;;;2.10;99.90;;;0.24;100.00;99880.25;4896624;28;20534;-83
2021/12/05 12:53:12;;;;;;;38.45;14.35;;;2.10;99.90;;;0.16;100.00;99883.84;4886393;28;20030;-81
2021/12/05 12:56:06;;;;;;;38.80;14.07;;;2.10;99.90;;;0.18;100.00;99889.00;4905958;28;20413;-82
2021/12/05 12:58:55;;;;;;;37.38;13.85;;;2.00;99.90;;;0.14;100.00;99889.91;4850094;28;20034;-82
2021/12/05 13:12:34;;;;;;;50.03;15.20;;;2.00;99.90;;;0.07;100.00;99878.81;4881191;28;20055;-83
2021/12/05 13:15:16;;;;;;;35.55;16.00;;;1.90;99.90;;;0.05;100.00;99865.03;4927700;28;20039;-83
2021/12/05 13:17:48;;;;;;;45.30;15.00;;;1.90;99.90;;;0.06;100.00;99863.31;4915261;28;20109;-83
2021/12/05 13:20:27;;;;;;;49.25;14.98;;;1.90;99.90;;;0.06;100.00;99861.56;4870394;28;20043;-82
2021/12/05 13:23:09;;;;;;;290.27;45.08;;;1.90;99.90;;;0.08;100.00;99870.16;4880740;28;20039;-83
2021/12/05 13:26:30;;;;;;;41.88;15.70;;;1.90;99.90;;;0.04;100.00;99868.50;4906386;28;20430;-83
2021/12/05 13:29:26;;;;;;;50.42;15.18;;;1.90;99.90;;;0.04;100.00;99873.69;4895950;28;20039;-82
2021/12/05 13:32:06;;;;;;;43.33;13.93;;;1.90;99.90;;;0.06;100.00;99879.69;4879840;28;20026;-83
2021/12/05 13:34:41;;;;;;;44.85;14.95;;;1.90;99.90;;;0.01;100.00;99878.06;4856409;28;20419;-81
2021/12/05 13:37:10;;;;;;;41.30;15.18;;;1.90;99.90;;;0.04;100.00;99881.44;4884757;28;20061;-82
2021/12/05 13:39:52;;;;;;;41.85;14.35;;;1.90;99.90;;;0.00;100.00;99877.22;4882309;28;20050;-82
2021/12/05 13:42:34;;;;;;;43.38;15.43;;;1.90;99.90;;;0.04;100.00;99878.84;4870296;28;20074;-81
2021/12/05 13:45:10;;;;;;;41.45;14.48;;;1.90;99.90;;;0.03;100.00;99879.75;4904958;28;20510;-82
2021/12/05 13:47:52;;;;;;;48.22;14.73;;;1.90;99.90;;;0.11;100.00;99888.25;4897687;28;20038;-83
2021/12/05 13:50:18;;;;;;;42.70;14.95;;;1.90;99.90;;;0.06;100.00;99897.81;4907113;28;20026;-82
2021/12/05 13:53:07;;;;;;;60.78;20.75;;;1.90;99.90;;;0.08;100.00;99903.81;4873544;28;20025;-83
2021/12/05 13:55:53;;;;;;;41.55;14.65;;;1.90;99.90;;;0.02;100.00;99903.91;4925060;28;20065;-81
2021/12/05 13:58:53;;;;;;;41.17;15.07;;;1.90;99.90;;;-0.01;100.00;99925.53;4936910;28;20034;-83
2021/12/05 14:01:44;;;;;;;42.75;13.73;;;1.90;99.90;;;0.04;100.00;99942.72;4936600;28;20077;-83
2021/12/05 14:04:21;;;;;;;41.88;14.77;;;1.90;99.90;;;0.06;100.00;99940.97;4901851;28;20038;-82
2021/12/05 14:07:07;;;;;;;46.88;15.50;;;2.00;99.90;;;0.07;100.00;99945.28;4896942;28;20105;-83
2021/12/05 14:09:51;;;;;;;46.80;16.20;;;1.90;99.90;;;0.01;100.00;99941.03;4895846;28;20029;-83
2021/12/05 14:12:29;;;;;;;39.17;14.18;;;1.90;99.90;;;-0.01;100.00;99951.41;4877654;28;20065;-83
2021/12/05 14:15:07;;;;;;;39.75;14.82;;;1.90;99.90;;;0.02;100.00;99965.19;4882764;28;20487;-83
2021/12/05 14:17:51;;;;;;;40.75;14.68;;;1.90;99.90;;;0.02;100.00;99955.69;4927292;28;20094;-83
2021/12/05 14:20:25;;;;;;;43.75;14.27;;;1.80;99.90;;;-0.03;100.00;99958.34;4878656;28;20043;-82
2021/12/05 14:22:54;;;;;;;40.92;14.60;;;1.90;99.90;;;0.05;100.00;99965.16;4878253;28;20026;-82
2021/12/05 14:25:28;;;;;;;42.35;14.38;;;1.90;99.90;;;0.07;100.00;99965.97;4863495;28;20090;-83
2021/12/05 14:28:04;;;;;;;39.08;15.27;;;1.90;99.90;;;0.00;100.00;99975.59;4864833;28;20019;-83
2021/12/05 14:30:34;;;;;;;46.83;15.15;;;1.80;99.90;;;-0.04;100.00;99977.34;4864913;28;20066;-82
2021/12/05 14:33:02;;;;;;;34.00;14.23;;;1.80;99.90;;;-0.07;100.00;99977.38;4873576;28;20035;-83
2021/12/05 14:35:40;;;;;;;47.20;14.75;;;1.80;99.90;;;-0.07;100.00;99979.13;4881344;28;20499;-83
2021/12/05 14:38:15;;;;;;;48.08;17.08;;;1.80;99.90;;;-0.11;100.00;99978.31;4911366;28;20639;-83
2021/12/05 14:40:43;;;;;;;42.25;15.88;;;1.80;99.90;;;-0.14;100.00;99990.44;4863274;28;20518;-81
2021/12/05 14:43:14;;;;;;;44.33;15.57;;;1.90;99.90;;;-0.18;100.00;99994.81;4869705;28;20532;-83
2021/12/05 14:45:41;;;;;;;44.78;15.63;;;1.80;99.90;;;-0.19;100.00;100005.16;4875043;28;20065;-83
2021/12/05 14:48:21;;;;;;;45.40;13.88;;;1.70;99.90;;;-0.22;100.00;100008.66;4873489;28;20096;-83
2021/12/05 14:50:51;;;;;;;40.20;14.35;;;1.70;99.90;;;-0.25;100.00;100024.25;4883066;28;24151;-82
2021/12/05 14:53:24;;;;;;;39.65;13.60;;;1.60;99.90;;;-0.24;100.00;100033.69;4910311;28;20030;-83
2021/12/05 14:55:58;;;;;;;40.75;14.63;;;1.70;99.90;;;-0.27;100.00;100034.59;4886952;28;20558;-83
2021/12/05 14:58:33;;;;;;;36.13;13.43;;;1.60;99.90;;;-0.24;100.00;100042.34;4864126;28;20038;-84
2021/12/05 15:01:01;;;;;;;34.47;13.32;;;1.70;99.90;;;-0.26;100.00;100041.50;4903968;28;20045;-83
2021/12/05 15:03:36;;;;;;;44.47;15.07;;;1.70;99.90;;;-0.27;100.00;100050.13;4892617;28;20030;-83
2021/12/05 15:06:06;;;;;;;40.38;14.50;;;;;;;-0.28;100.00;100053.59;4895927;28;20086;-82
2021/12/05 15:08:38;;;;;;;39.80;14.55;;;1.60;99.90;;;-0.29;100.00;100051.88;4908596;28;20480;-83
2021/12/05 15:11:08;;;;;;;43.80;14.88;;;1.60;99.90;;;-0.26;100.00;100061.31;4918557;28;20030;-83
2021/12/05 15:13:41;;;;;;;47.20;16.27;;;1.60;99.90;;;-0.30;100.00;100064.81;4876258;28;20035;-83
2021/12/05 15:16:07;;;;;;;46.85;16.45;;;1.60;99.90;;;-0.33;100.00;100070.03;4878931;28;20022;-83
2021/12/05 15:18:38;;;;;;;46.60;16.17;;;1.50;99.90;;;-0.34;100.00;100087.31;4869299;28;20035;-82
2021/12/05 15:21:13;;;;;;;43.28;16.25;;;1.60;99.90;;;-0.36;100.00;100081.28;4885486;28;20478;-83
2021/12/05 15:23:48;;;;;;;40.15;14.40;;;1.50;99.90;;;-0.36;100.00;100085.63;4871833;28;20471;-82
2021/12/05 15:26:14;;;;;;;49.47;17.50;;;1.50;99.90;;;-0.37;100.00;100066.63;4900143;28;20602;-83
2021/12/05 15:28:41;;;;;;;43.63;15.88;;;1.50;99.90;;;-0.33;100.00;100091.59;4917925;28;20037;-83
2021/12/05 15:31:10;;;;;;;50.38;15.63;;;1.60;99.90;;;-0.33;100.00;100085.56;4894116;28;20094;-81
2021/12/05 15:33:41;;;;;;;44.22;14.95;;;1.60;99.90;;;-0.30;100.00;100091.56;4879973;28;21540;-83
2021/12/05 15:36:08;;;;;;;42.70;15.02;;;1.60;99.90;;;-0.26;100.00;100094.94;4860003;28;24897;-83
2021/12/05 15:38:35;;;;;;;42.15;15.43;;;1.60;99.90;;;-0.21;100.00;100091.44;4886324;28;20532;-82
2021/12/05 15:41:27;;;;;;;39.78;14.95;;;1.60;99.90;;;-0.18;100.00;100094.88;4904669;28;21035;-82
2021/12/05 15:43:53;;;;;;;45.15;15.60;;;1.70;99.90;;;-0.17;100.00;100096.56;4883917;28;21349;-82
2021/12/05 15:46:19;;;;;;;40.83;15.73;;;1.70;99.90;;;-0.21;100.00;100096.63;4880498;28;20049;-82
2021/12/05 15:48:55;;;;;;;41.92;15.32;;;1.70;99.90;;;-0.16;100.00;100103.47;4905710;28;20525;-82
2021/12/05 15:51:22;;;;;;;;;;;1.70;99.90;;;-0.18;100.00;100097.47;4911527;28;20120;-82
2021/12/05 15:53:48;;;;;;;40.00;13.88;;;1.60;99.90;;;-0.19;100.00;100100.91;4874771;28;20334;-82
2021/12/05 15:56:22;;;;;;;45.75;15.95;;;;;;;-0.12;100.00;100108.59;4899673;28;20491;-83
2021/12/05 16:01:43;;;;;;;44.83;16.35;;;1.70;99.90;;;-0.21;100.00;100112.16;4840035;28;20062;-84
2021/12/05 16:04:23;;;;;;;48.55;16.38;;;1.60;99.90;;;-0.23;100.00;100113.03;4895985;28;20034;-83
2021/12/05 16:06:50;;;;;;;49.63;16.50;;;1.60;99.90;;;-0.29;100.00;100113.97;4894154;28;20523;-83